Blue Note — V2EU8 — position and weather

sailwx.info

Track history (hours):
 
Tides and Currents Weather Stations Pressure Air Temp Water Temp Dewpoint Dewpoint Depression Visibility Wind Speed Wind Dir Waves Ship Positions

Blue Note

Last reported at 2017-Nov-24 16:30 UTC. Time now 2017-Nov-24 16:50 UTC.
Position N 43°34' W 004°00'.

Length 89 m; draft 6.2 m.

Type: Cargo ship. MMSI: 305565000.

Date/timePositionNaut miles runAvg speedWind from/ knotsBaromVisibWave heightAir tempDewpointWater temp
2017-Nov-24 16:30N 43°34' W 004°00'4 8.2
2017-Nov-24 16:00N 43°34' W 003°55'4 7.6
2017-Nov-24 15:30N 43°34' W 003°50'4 7.8
2017-Nov-24 15:00N 43°31' W 003°47'3 6.3
2017-Nov-24 14:30N 43°28' W 003°46'3 0.4
2017-Nov-24 08:32N 43°27' W 003°49'0 0.0
2017-Nov-24 08:02N 43°27' W 003°49'0 0.0
2017-Nov-24 07:59N 43°27' W 003°49'0 0.0
2017-Nov-24 07:17N 43°27' W 003°49'0 0.0
2017-Nov-24 06:56N 43°27' W 003°49'0 0.0
2017-Nov-24 05:29N 43°27' W 003°49'0 0.0
2017-Nov-23 08:53N 43°27' W 003°49'2 4.2
2017-Nov-23 08:30N 43°27' W 003°48'4 8.2
2017-Nov-23 08:00N 43°30' W 003°43'5 9.5
2017-Nov-23 07:30N 43°32' W 003°37'4 8.8
2017-Nov-23 07:00N 43°33' W 003°31'4 8.3
2017-Nov-23 06:30N 43°33' W 003°26'4 8.7
2017-Nov-23 06:00N 43°31' W 003°20'5 9.8
2017-Nov-23 05:30N 43°29' W 003°14'510.0
2017-Nov-23 05:00N 43°26' W 003°09'4 8.2
2017-Nov-23 04:29N 43°23' W 003°05'1 2.8
2017-Nov-23 03:59N 43°21' W 003°04'0 0.0
2017-Nov-23 03:29N 43°21' W 003°04'0 0.0
2017-Nov-23 02:53N 43°21' W 003°04'0 0.0
2017-Nov-23 02:29N 43°21' W 003°04'0 0.0
2017-Nov-23 01:59N 43°21' W 003°04'0 0.0
2017-Nov-23 01:26N 43°21' W 003°04'0 0.0
2017-Nov-23 00:56N 43°21' W 003°04'0 0.0
2017-Nov-23 00:29N 43°21' W 003°04'0 0.0
2017-Nov-22 23:56N 43°21' W 003°04'0 0.0
2017-Nov-22 23:26N 43°21' W 003°04'0 0.0
2017-Nov-22 22:59N 43°21' W 003°04'0 0.0
2017-Nov-22 22:29N 43°21' W 003°04'0 0.0
2017-Nov-22 21:59N 43°21' W 003°04'0 0.0
2017-Nov-22 21:26N 43°21' W 003°04'0 0.0
2017-Nov-22 20:59N 43°21' W 003°04'0 0.0
2017-Nov-22 20:26N 43°21' W 003°04'0 0.0
2017-Nov-22 19:56N 43°21' W 003°04'0 0.0
2017-Nov-22 19:29N 43°21' W 003°04'  
2017-Nov-20 00:29N 43°21' W 003°04'0 0.0
2017-Nov-19 23:59N 43°21' W 003°04'0 0.0
2017-Nov-19 23:29N 43°21' W 003°04'0 0.0
2017-Nov-19 22:59N 43°21' W 003°04'0 0.0
2017-Nov-19 22:29N 43°21' W 003°04'0 0.0
2017-Nov-19 22:01N 43°21' W 003°04'1 1.1
2017-Nov-19 21:31N 43°22' W 003°03'4 7.7
2017-Nov-19 21:01N 43°25' W 003°06'5 9.1
2017-Nov-19 20:31N 43°27' W 003°12'5 9.0
2017-Nov-19 20:00N 43°29' W 003°17'4 9.0
2017-Nov-19 19:31N 43°32' W 003°22'4 8.8
2017-Nov-19 19:01N 43°34' W 003°28'4 8.6
2017-Nov-19 18:31N 43°34' W 003°34'4 8.5
2017-Nov-19 18:01N 43°34' W 003°39'4 8.3
2017-Nov-19 17:31N 43°34' W 003°45'4 8.2
2017-Nov-19 17:01N 43°34' W 003°51'4 8.5
2017-Nov-19 16:31N 43°34' W 003°57'4 8.4
2017-Nov-19 16:00N 43°35' W 004°02'4 8.4
2017-Nov-19 15:31N 43°35' W 004°08'4 8.5
2017-Nov-19 15:01N 43°35' W 004°14'4 8.6
2017-Nov-19 14:31N 43°35' W 004°20'7 8.7
2017-Nov-19 13:42N 43°35' W 004°30'2 8.9
2017-Nov-19 13:28N 43°35' W 004°33'13 8.8
2017-Nov-19 11:57N 43°36' W 004°51'5 8.9
2017-Nov-19 11:25N 43°37' W 004°58'4 8.9
2017-Nov-19 11:00N 43°38' W 005°03'4 8.9
2017-Nov-19 10:30N 43°38' W 005°08'4 8.5
2017-Nov-19 10:00N 43°39' W 005°14'4 8.6
2017-Nov-19 09:29N 43°40' W 005°20'4 8.7
2017-Nov-19 09:00N 43°41' W 005°26'4 8.9
2017-Nov-19 08:30N 43°42' W 005°32'5 8.9
2017-Nov-19 07:59N 43°43' W 005°38'5 8.6
2017-Nov-19 07:26N 43°44' W 005°45'4 8.9
2017-Nov-19 06:59N 43°44' W 005°50'4 8.9
2017-Nov-19 06:30N 43°45' W 005°56'5 8.7
2017-Nov-19 05:59N 43°45' W 006°02'5 8.7
2017-Nov-19 05:26N 43°46' W 006°09'4 8.7
2017-Nov-19 04:59N 43°46' W 006°14'4 8.4
2017-Nov-19 04:30N 43°47' W 006°20'5 8.3
2017-Nov-19 03:56N 43°47' W 006°26'4 8.3
2017-Nov-19 03:28N 43°48' W 006°32'26 8.2
2017-Nov-19 00:16N 43°50' W 007°08'2 7.8
2017-Nov-18 23:58N 43°50' W 007°11'4 7.9
2017-Nov-18 23:28N 43°50' W 007°17'4 8.3
2017-Nov-18 23:00N 43°50' W 007°22'4 8.0
2017-Nov-18 22:31N 43°50' W 007°28'4 7.9
2017-Nov-18 22:01N 43°50' W 007°33'4 8.0
2017-Nov-18 21:31N 43°50' W 007°39'9 7.9
2017-Nov-18 20:22N 43°50' W 007°51'3 7.2
2017-Nov-18 20:01N 43°50' W 007°55'194 6.8
2017-Nov-17 15:36N 40°56' W 009°49'1 8.3
2017-Nov-17 15:30N 40°55' W 009°49'4 8.7
2017-Nov-17 15:00N 40°50' W 009°50'24 9.2
2017-Nov-17 12:22N 40°26' W 009°49'410.0
2017-Nov-17 12:00N 40°23' W 009°49'5 9.9
2017-Nov-17 11:30N 40°18' W 009°49'8 9.6
2017-Nov-17 10:38N 40°09' W 009°49'2 9.1
2017-Nov-17 10:27N 40°08' W 009°49'4 9.2
2017-Nov-17 09:59N 40°03' W 009°49'5 9.2
2017-Nov-17 09:26N 39°58' W 009°49'6 9.0
2017-Nov-17 08:46N 39°52' W 009°49'12 8.9
2017-Nov-17 07:28N 39°41' W 009°50'4 8.9
2017-Nov-17 07:00N 39°37' W 009°51'5 9.1
2017-Nov-17 06:30N 39°32' W 009°51'5 9.0
2017-Nov-17 05:55N 39°27' W 009°51'4 9.1
2017-Nov-17 05:30N 39°23' W 009°51'5 9.1
2017-Nov-17 04:57N 39°18' W 009°51'4 9.0
2017-Nov-17 04:30N 39°14' W 009°51'5 9.1
2017-Nov-17 04:01N 39°10' W 009°51'5 9.1
2017-Nov-17 03:31N 39°05' W 009°51'5 9.0
2017-Nov-17 03:00N 39°00' W 009°51'4 9.0
2017-Nov-17 02:30N 38°56' W 009°51'5 9.0
2017-Nov-17 02:01N 38°52' W 009°51'5 9.2
2017-Nov-17 01:31N 38°47' W 009°51'4 9.0
2017-Nov-17 01:01N 38°42' W 009°51'4 8.9
2017-Nov-17 00:31N 38°38' W 009°50'4 8.8
2017-Nov-17 00:00N 38°34' W 009°48'4 8.7
2017-Nov-16 23:31N 38°30' W 009°47'4 8.5
2017-Nov-16 23:01N 38°25' W 009°46'4 8.8
2017-Nov-16 22:31N 38°21' W 009°44'4 8.4
2017-Nov-16 22:01N 38°17' W 009°43'4 8.1
2017-Nov-16 21:31N 38°13' W 009°42'4 8.2
2017-Nov-16 21:01N 38°09' W 009°41'4 8.5
2017-Nov-16 20:31N 38°05' W 009°40'4 8.7
2017-Nov-16 20:01N 38°01' W 009°39'4 8.9
2017-Nov-16 19:31N 37°56' W 009°37'4 9.0
2017-Nov-16 19:01N 37°52' W 009°36'5 9.1
2017-Nov-16 18:30N 37°48' W 009°35'5 9.2
2017-Nov-16 18:00N 37°43' W 009°33'4 9.0
2017-Nov-16 17:30N 37°39' W 009°32'5 9.1
2017-Nov-16 17:00N 37°34' W 009°31'4 8.9
2017-Nov-16 16:30N 37°30' W 009°29'5 8.8
2017-Nov-16 15:59N 37°26' W 009°28'4 8.7
2017-Nov-16 15:30N 37°22' W 009°27'5 9.3
2017-Nov-16 14:55N 37°16' W 009°25'7 9.3
2017-Nov-16 14:13N 37°10' W 009°23'2 9.0
2017-Nov-16 14:01N 37°08' W 009°23'4 8.8
2017-Nov-16 13:31N 37°04' W 009°21'5 9.6
2017-Nov-16 13:01N 36°59' W 009°20'5 9.2
2017-Nov-16 12:30N 36°55' W 009°18'4 8.8
2017-Nov-16 11:59N 36°51' W 009°15'187 9.0
2017-Nov-15 15:18N 35°59' W 005°32'7 7.4
2017-Nov-15 14:21N 35°59' W 005°23'3 8.1
2017-Nov-15 14:01N 35°57' W 005°21'4 7.5
2017-Nov-15 13:31N 35°54' W 005°18'0 0.8
2017-Nov-15 13:00N 35°54' W 005°18'0 0.0
2017-Nov-15 12:30N 35°54' W 005°18'0 0.0
2017-Nov-15 12:00N 35°54' W 005°18'0 0.0
2017-Nov-15 11:27N 35°54' W 005°18'0 0.0
2017-Nov-15 11:00N 35°54' W 005°18'0 0.0
2017-Nov-15 10:27N 35°54' W 005°18'0 0.0
2017-Nov-15 09:57N 35°54' W 005°18'0 0.0
2017-Nov-15 09:30N 35°54' W 005°18'0 0.5
2017-Nov-15 09:00N 35°54' W 005°19'1 2.0
2017-Nov-15 08:31N 35°55' W 005°18'  
Track history (hours):
 
Tides and Currents Weather Stations Pressure Air Temp Water Temp Dewpoint Dewpoint Depression Visibility Wind Speed Wind Dir Waves Ship Positions

Blue Note

Last reported at 2017-Nov-24 16:30 UTC. Time now 2017-Nov-24 16:50 UTC.
Position N 43°34' W 004°00'.

Length 89 m; draft 6.2 m.

Type: Cargo ship. MMSI: 305565000.

Date/timePositionNaut miles runAvg speedWind from/ knotsBaromVisibWave heightAir tempDewpointWater temp
2017-Nov-24 16:30N 43°34' W 004°00'4 8.2
2017-Nov-24 16:00N 43°34' W 003°55'4 7.6
2017-Nov-24 15:30N 43°34' W 003°50'4 7.8
2017-Nov-24 15:00N 43°31' W 003°47'3 6.3
2017-Nov-24 14:30N 43°28' W 003°46'3 0.4
2017-Nov-24 08:32N 43°27' W 003°49'0 0.0
2017-Nov-24 08:02N 43°27' W 003°49'0 0.0
2017-Nov-24 07:59N 43°27' W 003°49'0 0.0
2017-Nov-24 07:17N 43°27' W 003°49'0 0.0
2017-Nov-24 06:56N 43°27' W 003°49'0 0.0
2017-Nov-24 05:29N 43°27' W 003°49'0 0.0
2017-Nov-23 08:53N 43°27' W 003°49'2 4.2
2017-Nov-23 08:30N 43°27' W 003°48'4 8.2
2017-Nov-23 08:00N 43°30' W 003°43'5 9.5
2017-Nov-23 07:30N 43°32' W 003°37'4 8.8
2017-Nov-23 07:00N 43°33' W 003°31'4 8.3
2017-Nov-23 06:30N 43°33' W 003°26'4 8.7
2017-Nov-23 06:00N 43°31' W 003°20'5 9.8
2017-Nov-23 05:30N 43°29' W 003°14'510.0
2017-Nov-23 05:00N 43°26' W 003°09'4 8.2
2017-Nov-23 04:29N 43°23' W 003°05'1 2.8
2017-Nov-23 03:59N 43°21' W 003°04'0 0.0
2017-Nov-23 03:29N 43°21' W 003°04'0 0.0
2017-Nov-23 02:53N 43°21' W 003°04'0 0.0
2017-Nov-23 02:29N 43°21' W 003°04'0 0.0
2017-Nov-23 01:59N 43°21' W 003°04'0 0.0
2017-Nov-23 01:26N 43°21' W 003°04'0 0.0
2017-Nov-23 00:56N 43°21' W 003°04'0 0.0
2017-Nov-23 00:29N 43°21' W 003°04'0 0.0
2017-Nov-22 23:56N 43°21' W 003°04'0 0.0
2017-Nov-22 23:26N 43°21' W 003°04'0 0.0
2017-Nov-22 22:59N 43°21' W 003°04'0 0.0
2017-Nov-22 22:29N 43°21' W 003°04'0 0.0
2017-Nov-22 21:59N 43°21' W 003°04'0 0.0
2017-Nov-22 21:26N 43°21' W 003°04'0 0.0
2017-Nov-22 20:59N 43°21' W 003°04'0 0.0
2017-Nov-22 20:26N 43°21' W 003°04'0 0.0
2017-Nov-22 19:56N 43°21' W 003°04'0 0.0
2017-Nov-22 19:29N 43°21' W 003°04'  
2017-Nov-20 00:29N 43°21' W 003°04'0 0.0
2017-Nov-19 23:59N 43°21' W 003°04'0 0.0
2017-Nov-19 23:29N 43°21' W 003°04'0 0.0
2017-Nov-19 22:59N 43°21' W 003°04'0 0.0
2017-Nov-19 22:29N 43°21' W 003°04'0 0.0
2017-Nov-19 22:01N 43°21' W 003°04'1 1.1
2017-Nov-19 21:31N 43°22' W 003°03'4 7.7
2017-Nov-19 21:01N 43°25' W 003°06'5 9.1
2017-Nov-19 20:31N 43°27' W 003°12'5 9.0
2017-Nov-19 20:00N 43°29' W 003°17'4 9.0
2017-Nov-19 19:31N 43°32' W 003°22'4 8.8
2017-Nov-19 19:01N 43°34' W 003°28'4 8.6
2017-Nov-19 18:31N 43°34' W 003°34'4 8.5
2017-Nov-19 18:01N 43°34' W 003°39'4 8.3
2017-Nov-19 17:31N 43°34' W 003°45'4 8.2
2017-Nov-19 17:01N 43°34' W 003°51'4 8.5
2017-Nov-19 16:31N 43°34' W 003°57'4 8.4
2017-Nov-19 16:00N 43°35' W 004°02'4 8.4
2017-Nov-19 15:31N 43°35' W 004°08'4 8.5
2017-Nov-19 15:01N 43°35' W 004°14'4 8.6
2017-Nov-19 14:31N 43°35' W 004°20'7 8.7
2017-Nov-19 13:42N 43°35' W 004°30'2 8.9
2017-Nov-19 13:28N 43°35' W 004°33'13 8.8
2017-Nov-19 11:57N 43°36' W 004°51'5 8.9
2017-Nov-19 11:25N 43°37' W 004°58'4 8.9
2017-Nov-19 11:00N 43°38' W 005°03'4 8.9
2017-Nov-19 10:30N 43°38' W 005°08'4 8.5
2017-Nov-19 10:00N 43°39' W 005°14'4 8.6
2017-Nov-19 09:29N 43°40' W 005°20'4 8.7
2017-Nov-19 09:00N 43°41' W 005°26'4 8.9
2017-Nov-19 08:30N 43°42' W 005°32'5 8.9
2017-Nov-19 07:59N 43°43' W 005°38'5 8.6
2017-Nov-19 07:26N 43°44' W 005°45'4 8.9
2017-Nov-19 06:59N 43°44' W 005°50'4 8.9
2017-Nov-19 06:30N 43°45' W 005°56'5 8.7
2017-Nov-19 05:59N 43°45' W 006°02'5 8.7
2017-Nov-19 05:26N 43°46' W 006°09'4 8.7
2017-Nov-19 04:59N 43°46' W 006°14'4 8.4
2017-Nov-19 04:30N 43°47' W 006°20'5 8.3
2017-Nov-19 03:56N 43°47' W 006°26'4 8.3
2017-Nov-19 03:28N 43°48' W 006°32'26 8.2
2017-Nov-19 00:16N 43°50' W 007°08'2 7.8
2017-Nov-18 23:58N 43°50' W 007°11'4 7.9
2017-Nov-18 23:28N 43°50' W 007°17'4 8.3
2017-Nov-18 23:00N 43°50' W 007°22'4 8.0
2017-Nov-18 22:31N 43°50' W 007°28'4 7.9
2017-Nov-18 22:01N 43°50' W 007°33'4 8.0
2017-Nov-18 21:31N 43°50' W 007°39'9 7.9
2017-Nov-18 20:22N 43°50' W 007°51'3 7.2
2017-Nov-18 20:01N 43°50' W 007°55'194 6.8
2017-Nov-17 15:36N 40°56' W 009°49'1 8.3
2017-Nov-17 15:30N 40°55' W 009°49'4 8.7
2017-Nov-17 15:00N 40°50' W 009°50'24 9.2
2017-Nov-17 12:22N 40°26' W 009°49'410.0
2017-Nov-17 12:00N 40°23' W 009°49'5 9.9
2017-Nov-17 11:30N 40°18' W 009°49'8 9.6
2017-Nov-17 10:38N 40°09' W 009°49'2 9.1
2017-Nov-17 10:27N 40°08' W 009°49'4 9.2
2017-Nov-17 09:59N 40°03' W 009°49'5 9.2
2017-Nov-17 09:26N 39°58' W 009°49'6 9.0
2017-Nov-17 08:46N 39°52' W 009°49'12 8.9
2017-Nov-17 07:28N 39°41' W 009°50'4 8.9
2017-Nov-17 07:00N 39°37' W 009°51'5 9.1
2017-Nov-17 06:30N 39°32' W 009°51'5 9.0
2017-Nov-17 05:55N 39°27' W 009°51'4 9.1
2017-Nov-17 05:30N 39°23' W 009°51'5 9.1
2017-Nov-17 04:57N 39°18' W 009°51'4 9.0
2017-Nov-17 04:30N 39°14' W 009°51'5 9.1
2017-Nov-17 04:01N 39°10' W 009°51'5 9.1
2017-Nov-17 03:31N 39°05' W 009°51'5 9.0
2017-Nov-17 03:00N 39°00' W 009°51'4 9.0
2017-Nov-17 02:30N 38°56' W 009°51'5 9.0
2017-Nov-17 02:01N 38°52' W 009°51'5 9.2
2017-Nov-17 01:31N 38°47' W 009°51'4 9.0
2017-Nov-17 01:01N 38°42' W 009°51'4 8.9
2017-Nov-17 00:31N 38°38' W 009°50'4 8.8
2017-Nov-17 00:00N 38°34' W 009°48'4 8.7
2017-Nov-16 23:31N 38°30' W 009°47'4 8.5
2017-Nov-16 23:01N 38°25' W 009°46'4 8.8
2017-Nov-16 22:31N 38°21' W 009°44'4 8.4
2017-Nov-16 22:01N 38°17' W 009°43'4 8.1
2017-Nov-16 21:31N 38°13' W 009°42'4 8.2
2017-Nov-16 21:01N 38°09' W 009°41'4 8.5
2017-Nov-16 20:31N 38°05' W 009°40'4 8.7
2017-Nov-16 20:01N 38°01' W 009°39'4 8.9
2017-Nov-16 19:31N 37°56' W 009°37'4 9.0
2017-Nov-16 19:01N 37°52' W 009°36'5 9.1
2017-Nov-16 18:30N 37°48' W 009°35'5 9.2
2017-Nov-16 18:00N 37°43' W 009°33'4 9.0
2017-Nov-16 17:30N 37°39' W 009°32'5 9.1
2017-Nov-16 17:00N 37°34' W 009°31'4 8.9
2017-Nov-16 16:30N 37°30' W 009°29'5 8.8
2017-Nov-16 15:59N 37°26' W 009°28'4 8.7
2017-Nov-16 15:30N 37°22' W 009°27'5 9.3
2017-Nov-16 14:55N 37°16' W 009°25'7 9.3
2017-Nov-16 14:13N 37°10' W 009°23'2 9.0
2017-Nov-16 14:01N 37°08' W 009°23'4 8.8
2017-Nov-16 13:31N 37°04' W 009°21'5 9.6
2017-Nov-16 13:01N 36°59' W 009°20'5 9.2
2017-Nov-16 12:30N 36°55' W 009°18'4 8.8
2017-Nov-16 11:59N 36°51' W 009°15'187 9.0
2017-Nov-15 15:18N 35°59' W 005°32'7 7.4
2017-Nov-15 14:21N 35°59' W 005°23'3 8.1
2017-Nov-15 14:01N 35°57' W 005°21'4 7.5
2017-Nov-15 13:31N 35°54' W 005°18'0 0.8
2017-Nov-15 13:00N 35°54' W 005°18'0 0.0
2017-Nov-15 12:30N 35°54' W 005°18'0 0.0
2017-Nov-15 12:00N 35°54' W 005°18'0 0.0
2017-Nov-15 11:27N 35°54' W 005°18'0 0.0
2017-Nov-15 11:00N 35°54' W 005°18'0 0.0
2017-Nov-15 10:27N 35°54' W 005°18'0 0.0
2017-Nov-15 09:57N 35°54' W 005°18'0 0.0
2017-Nov-15 09:30N 35°54' W 005°18'0 0.5
2017-Nov-15 09:00N 35°54' W 005°19'1 2.0
2017-Nov-15 08:31N 35°55' W 005°18'  

Dump ship's entire track history